Time;durP1;ratioP1;P1;durP2;ratioP2;P2;SDS_P1;SDS_P2;PMS_P1;PMS_P2;Temp;Humidity;BMP_temperature;BMP_pressure;BME280_temperature;BME280_humidity;BME280_pressure;Samples;Min_cycle;Max_cycle;Signal;HPM_P1;HPM_P2
2022/08/01 00:02:24;;;;;;;;;1.50;1.50;;;;;23.54;53.08;101590.59;5094221;27;45768;-87
2022/08/01 00:04:49;;;;;;;;;1.00;1.00;;;;;23.60;53.26;101588.47;5093565;27;56199;-87
2022/08/01 00:07:15;;;;;;;;;1.50;0.75;;;;;23.65;53.03;101586.34;5078965;28;45246;-87
2022/08/01 00:09:40;;;;;;;;;2.50;0.25;;;;;23.65;53.06;101586.34;5076417;28;71167;-87
2022/08/01 00:12:05;;;;;;;;;1.00;1.00;;;;;23.69;53.07;101590.50;5094017;27;52207;-87
2022/08/01 00:14:31;;;;;;;;;1.00;1.00;;;;;23.71;52.86;101586.75;5078719;28;45466;-87
2022/08/01 00:16:56;;;;;;;;;2.00;1.00;;;;;23.78;52.59;101598.66;5077671;28;45405;-87
2022/08/01 00:19:21;;;;;;;;;2.00;0.50;;;;;23.77;52.93;101591.66;5110058;27;69887;-87
2022/08/01 00:21:47;;;;;;;;;1.00;1.00;;;;;23.74;52.82;101585.69;5077851;27;67499;-87
2022/08/01 00:24:12;;;;;;;;;0.75;0.75;;;;;23.68;52.90;101584.34;5093875;27;45389;-86
2022/08/01 00:26:37;;;;;;;;;2.00;1.00;;;;;23.69;53.38;101583.34;5094378;27;45304;-86
2022/08/01 00:29:03;;;;;;;;;2.00;1.00;;;;;23.65;53.27;101581.03;5093254;27;62361;-86
2022/08/01 00:31:28;;;;;;;;;0.25;0.25;;;;;23.62;53.18;101578.59;5078414;28;45412;-87
2022/08/01 00:33:54;;;;;;;;;0.75;0.75;;;;;23.67;53.38;101573.81;5078124;28;45426;-87
2022/08/01 00:36:19;;;;;;;;;0.50;0.50;;;;;23.68;52.83;101572.84;5078456;27;45565;-86
2022/08/01 00:38:44;;;;;;;;;0.25;0.25;;;;;23.63;53.52;101569.69;5110728;27;46219;-86
2022/08/01 00:41:10;;;;;;;;;2.00;0.00;;;;;23.61;53.32;101571.59;5092908;27;71709;-86
2022/08/01 00:43:35;;;;;;;;;1.25;1.00;;;;;23.53;53.49;101564.13;5093463;27;53660;-87
2022/08/01 00:46:00;;;;;;;;;1.50;1.00;;;;;23.50;53.43;101564.38;5093841;27;45465;-87
2022/08/01 00:48:26;;;;;;;;;1.00;1.00;;;;;23.49;53.18;101555.53;5110056;27;58283;-87
2022/08/01 00:50:51;;;;;;;;;0.75;0.25;;;;;23.50;53.48;101565.22;5076698;28;45313;-86
2022/08/01 00:53:16;;;;;;;;;0.25;0.25;;;;;23.49;53.39;101566.16;5093057;27;64582;-87
2022/08/01 00:55:42;;;;;;;;;1.75;0.75;;;;;23.48;53.83;101559.16;5110501;27;64166;-87
2022/08/01 00:58:08;;;;;;;;;1.00;0.25;;;;;23.46;53.46;101560.22;5075480;28;75561;-87
2022/08/01 01:00:34;;;;;;;;;1.25;0.75;;;;;23.44;53.74;101562.13;5110170;27;53555;-87
2022/08/01 01:03:00;;;;;;;;;0.00;0.00;;;;;23.46;52.95;101554.91;5093469;27;45232;-87
2022/08/01 01:05:25;;;;;;;;;2.00;0.75;;;;;23.45;53.42;101562.03;5111283;27;45436;-87
2022/08/01 01:07:58;;;;;;;;;0.25;0.25;;;;;23.50;53.88;101570.53;5075951;28;64370;-87
2022/08/01 01:10:52;;;;;;;;;1.00;0.75;;;;;23.48;53.34;101567.13;5076221;28;45329;-87
2022/08/01 01:13:31;;;;;;;;;2.00;0.75;;;;;23.53;53.78;101574.75;5076441;28;45363;-86
2022/08/01 01:16:02;;;;;;;;;0.25;0.25;;;;;23.52;53.48;101568.63;5076419;28;45562;-87
2022/08/01 01:18:51;;;;;;;;;1.00;1.00;;;;;23.58;53.00;101565.50;5059032;28;47378;-87
2022/08/01 01:21:16;;;;;;;;;0.75;0.75;;;;;23.56;53.21;101559.47;5077029;28;45218;-87
2022/08/01 01:23:57;;;;;;;;;0.75;0.75;;;;;23.55;53.05;101556.91;5076714;28;45198;-87
2022/08/01 01:26:40;;;;;;;;;0.00;0.00;;;;;23.55;53.96;101568.41;5077675;28;45474;-87
2022/08/01 01:29:27;;;;;;;;;0.00;0.00;;;;;23.49;53.40;101560.84;5076067;28;46153;-87
2022/08/01 01:32:02;;;;;;;;;1.75;0.25;;;;;23.48;53.51;101559.16;5076788;28;45319;-87
2022/08/01 01:34:28;;;;;;;;;0.00;0.00;;;;;23.44;53.80;101557.69;5110597;27;45421;-87
2022/08/01 01:36:55;;;;;;;;;0.75;0.75;;;;;23.39;53.76;101559.81;5110872;27;45642;-87
2022/08/01 01:39:21;;;;;;;;;1.00;1.00;;;;;23.37;53.79;101553.75;5075870;28;45475;-87
2022/08/01 01:41:48;;;;;;;;;0.00;0.00;;;;;23.37;53.95;101556.41;5058067;28;70008;-86
2022/08/01 01:44:15;;;;;;;;;0.75;0.50;;;;;23.33;54.15;101557.59;5059248;28;45330;-86
2022/08/01 01:46:41;;;;;;;;;1.50;0.75;;;;;23.32;54.11;101551.41;5075565;27;45495;-86
2022/08/01 01:49:09;;;;;;;;;0.00;0.00;;;;;23.35;54.00;101553.03;5110076;27;46021;-86
2022/08/01 01:51:35;;;;;;;;;2.75;0.75;;;;;23.38;53.79;101556.31;5075860;28;45327;-87
2022/08/01 01:54:00;;;;;;;;;1.00;1.00;;;;;23.41;54.04;101559.72;5109082;27;66565;-87
2022/08/01 01:56:27;;;;;;;;;1.75;0.75;;;;;23.42;53.95;101561.38;5058303;28;58394;-87
2022/08/01 01:58:55;;;;;;;;;0.50;0.00;;;;;23.39;53.69;101555.34;5075474;28;52566;-87
2022/08/01 02:01:24;;;;;;;;;1.00;1.00;;;;;23.39;53.94;101555.34;5092263;27;46109;-87
2022/08/01 02:03:51;;;;;;;;;2.00;1.00;;;;;23.36;54.54;101547.59;5109806;27;45461;-87
2022/08/01 02:06:16;;;;;;;;;1.50;1.50;;;;;23.36;54.47;101549.38;5058145;28;66786;-89
2022/08/01 02:08:42;;;;;;;;;3.00;1.00;;;;;23.35;54.10;101553.88;5058447;28;46122;-86
2022/08/01 02:11:21;;;;;;;;;5.50;4.25;;;;;23.37;54.21;101551.09;5075401;28;45359;-87
2022/08/01 02:13:51;;;;;;;;;3.00;2.25;;;;;23.39;53.88;101552.69;5075938;28;45394;-87
2022/08/01 02:16:18;;;;;;;;;3.50;3.00;;;;;23.43;53.97;101549.81;5058575;28;45399;-88
2022/08/01 02:18:43;;;;;;;;;4.25;4.00;;;;;23.44;54.17;101539.09;5075872;28;47212;-87
2022/08/01 02:21:12;;;;;;;;;5.75;4.00;;;;;23.45;54.21;101547.91;5074418;28;69465;-87
2022/08/01 02:23:38;;;;;;;;;4.25;3.50;;;;;23.40;54.32;101540.25;5090277;27;45352;-87
2022/08/01 02:26:07;;;;;;;;;2.50;2.50;;;;;23.39;54.46;101552.69;5075322;28;45315;-87
2022/08/01 02:28:38;;;;;;;;;2.00;2.00;;;;;23.34;54.75;101552.16;5058187;28;47539;-86
2022/08/01 02:31:09;;;;;;;;;1.75;1.25;;;;;23.30;54.68;101550.66;5074909;28;45461;-86
2022/08/01 02:33:46;;;;;;;;;1.00;1.00;;;;;23.30;54.57;101542.69;5109824;27;45284;-87
2022/08/01 02:36:12;;;;;;;;;2.25;1.00;;;;;23.28;54.96;101549.09;5111070;27;45632;-87
2022/08/01 02:38:41;;;;;;;;;0.00;0.00;;;;;23.29;55.17;101548.13;5113072;27;45441;-87
2022/08/01 02:41:13;;;;;;;;;0.75;0.00;;;;;23.26;55.00;101549.19;5061881;28;45360;-86
2022/08/01 02:43:43;;;;;;;;;0.50;0.50;;;;;23.28;55.07;101552.59;5079164;28;45279;-87
2022/08/01 02:46:12;;;;;;;;;1.00;1.00;;;;;23.30;55.06;101539.19;5079051;28;45431;-87
2022/08/01 02:48:38;;;;;;;;;0.25;0.25;;;;;23.30;54.84;101548.00;5079954;28;46244;-87
2022/08/01 02:51:06;;;;;;;;;1.25;1.25;;;;;23.26;54.94;101549.19;5113117;27;45803;-87
2022/08/01 02:53:36;;;;;;;;;0.00;0.00;;;;;23.29;54.93;101545.47;5080139;28;45392;-87
2022/08/01 02:56:03;;;;;;;;;0.75;0.75;;;;;23.33;55.06;101552.28;5080123;28;45464;-87
2022/08/01 02:58:29;;;;;;;;;0.00;0.00;;;;;23.32;54.86;101547.91;5078357;28;46486;-87
2022/08/01 03:00:55;;;;;;;;;0.75;0.75;;;;;23.27;55.29;101539.41;5078454;28;45761;-87
2022/08/01 03:03:21;;;;;;;;;0.00;0.00;;;;;23.29;55.28;101543.69;5112560;27;61747;-87
2022/08/01 03:05:48;;;;;;;;;0.25;0.25;;;;;23.32;55.17;101546.09;5078711;27;45359;-87
2022/08/01 03:08:15;;;;;;;;;1.25;0.75;;;;;23.28;55.60;101544.63;5078463;28;45390;-87
2022/08/01 03:10:42;;;;;;;;;0.50;0.50;;;;;23.21;55.14;101540.69;5077476;28;68693;-86
2022/08/01 03:13:09;;;;;;;;;1.00;1.00;;;;;23.22;55.33;101545.06;5078096;28;45326;-87
2022/08/01 03:15:38;;;;;;;;;0.50;0.50;;;;;23.26;55.39;101541.22;5078656;28;45292;-87
2022/08/01 03:18:05;;;;;;;;;1.00;1.00;;;;;23.29;55.53;101542.81;5079477;28;45427;-87
2022/08/01 03:20:33;;;;;;;;;0.75;0.25;;;;;23.25;55.49;101546.63;5078560;28;45819;-87
2022/08/01 03:23:00;;;;;;;;;0.75;0.50;;;;;23.26;55.33;101549.19;5078745;28;45361;-87
2022/08/01 03:25:26;;;;;;;;;0.00;0.00;;;;;23.18;56.03;101552.38;5078352;28;45502;-87
2022/08/01 03:27:55;;;;;;;;;0.75;0.75;;;;;23.12;56.03;101554.59;5077473;28;52534;-87
2022/08/01 03:30:22;;;;;;;;;0.75;0.75;;;;;23.04;55.93;101551.63;5077980;28;45441;-87
2022/08/01 03:32:47;;;;;;;;;1.00;1.00;;;;;23.00;56.30;101557.13;5112435;27;45431;-87
2022/08/01 03:35:13;;;;;;;;;1.00;1.00;;;;;;;;5112368;27;45373;-88
2022/08/01 03:37:42;;;;;;;;;0.00;0.00;;;;;22.98;56.28;101551.06;5080795;28;47222;-87
2022/08/01 03:40:11;;;;;;;;;0.50;0.50;;;;;23.03;56.20;101555.22;5081793;28;46003;-86
2022/08/01 03:42:44;;;;;;;;;1.50;0.75;;;;;23.06;55.89;101552.38;5082573;28;45359;-87
2022/08/01 03:45:13;;;;;;;;;1.50;0.00;;;;;23.04;56.10;101551.63;5064812;28;45343;-87
2022/08/01 03:47:43;;;;;;;;;1.00;0.50;;;;;23.02;56.11;101548.22;5081038;28;47868;-87
2022/08/01 03:50:10;;;;;;;;;0.75;0.75;;;;;23.07;56.01;101546.09;5117437;27;45589;-88
2022/08/01 03:52:38;;;;;;;;;0.75;0.75;;;;;23.15;56.15;101551.75;5117121;27;45483;-87
2022/08/01 03:55:06;;;;;;;;;1.00;1.00;;;;;23.19;56.31;101554.06;5094959;27;63487;-87
2022/08/01 03:57:33;;;;;;;;;1.00;1.00;;;;;23.21;56.04;101555.78;5076836;28;46204;-87
2022/08/01 03:59:59;;;;;;;;;1.00;1.00;;;;;23.23;55.78;101560.03;5111436;27;45363;-87
2022/08/01 04:02:26;;;;;;;;;0.00;0.00;;;;;23.15;56.11;101557.91;5094563;27;45335;-86
2022/08/01 04:04:52;;;;;;;;;0.50;0.00;;;;;23.08;56.27;101553.97;5111416;27;45394;-87
2022/08/01 04:07:24;;;;;;;;;1.00;1.00;;;;;23.04;56.35;101551.63;5059933;28;54922;-87
2022/08/01 04:09:49;;;;;;;;;1.25;0.50;;;;;22.95;56.61;101555.72;5060148;28;45547;-87
2022/08/01 04:12:14;;;;;;;;;0.25;0.25;;;;;22.89;56.97;101546.38;5093900;27;45358;-86
2022/08/01 04:14:40;;;;;;;;;1.50;0.00;;;;;22.88;56.56;101550.00;5077782;28;67827;-87
2022/08/01 04:17:05;;;;;;;;;1.50;0.75;;;;;22.84;57.02;101537.88;5075896;28;75428;-87
2022/08/01 04:19:30;;;;;;;;;0.25;0.25;;;;;22.83;57.43;101544.16;5077249;28;73736;-87
2022/08/01 04:21:56;;;;;;;;;0.50;0.50;;;;;22.80;57.20;101542.53;5077555;27;69278;-87
2022/08/01 04:24:23;;;;;;;;;1.00;1.00;;;;;22.79;57.30;101540.88;5077131;28;45367;-87
2022/08/01 04:26:50;;;;;;;;;0.75;0.75;;;;;22.75;57.42;101542.03;5059877;28;48000;-87
2022/08/01 04:29:17;;;;;;;;;2.50;1.25;;;;;22.72;57.41;101536.91;5060121;28;45654;-87
2022/08/01 04:31:44;;;;;;;;;0.50;0.00;;;;;22.70;57.73;101528.22;5085341;27;45930;-87
2022/08/01 04:34:12;;;;;;;;;0.00;0.00;;;;;22.67;57.62;101530.22;5077084;28;45417;-86
2022/08/01 04:36:41;;;;;;;;;0.25;0.25;;;;;22.63;57.60;101531.38;5111213;27;45475;-86
2022/08/01 04:39:08;;;;;;;;;0.50;0.50;;;;;22.57;58.36;101533.50;5110443;27;45457;-87
2022/08/01 04:41:34;;;;;;;;;1.00;0.50;;;;;22.57;58.22;101530.84;5076660;28;45343;-87
2022/08/01 04:43:59;;;;;;;;;0.25;0.25;;;;;22.64;57.81;101533.94;5111018;27;45457;-87
2022/08/01 04:46:24;;;;;;;;;0.75;0.75;;;;;22.68;57.99;101529.25;5110115;27;74544;-86
2022/08/01 04:48:50;;;;;;;;;0.50;0.50;;;;;22.71;57.82;101534.38;5092975;27;56922;-87
2022/08/01 04:51:16;;;;;;;;;0.00;0.00;;;;;22.73;57.49;101541.28;5110572;27;48703;-87
2022/08/01 04:53:43;;;;;;;;;0.50;0.50;;;;;22.76;58.15;101540.22;5093524;27;45402;-87
2022/08/01 04:56:08;;;;;;;;;1.50;0.50;;;;;22.71;57.92;101545.81;5077408;28;47144;-86
2022/08/01 04:58:34;;;;;;;;;0.25;0.25;;;;;22.67;57.93;101552.28;5075411;28;45435;-86
2022/08/01 05:00:59;;;;;;;;;2.50;1.00;;;;;22.62;57.97;101546.44;5093358;27;45326;-87
2022/08/01 05:03:25;;;;;;;;;0.50;0.50;;;;;22.59;58.49;101550.16;5110817;27;45468;-87
2022/08/01 05:05:50;;;;;;;;;0.75;0.75;;;;;22.53;58.52;101555.00;5075749;28;62343;-87
2022/08/01 05:08:16;;;;;;;;;0.50;0.50;;;;;22.53;58.31;101568.28;5075405;28;67282;-87
2022/08/01 05:10:41;;;;;;;;;2.00;1.00;;;;;22.53;58.30;101560.31;5076535;28;45250;-87
2022/08/01 05:13:06;;;;;;;;;1.50;1.00;;;;;22.48;58.51;101563.28;5076329;28;45285;-87
2022/08/01 05:15:32;;;;;;;;;1.75;1.00;;;;;22.49;58.60;101572.09;5076144;27;75304;-83
2022/08/01 05:17:57;;;;;;;;;0.50;0.00;;;;;22.50;58.25;101573.81;5076306;28;68136;-83
2022/08/01 05:20:22;;;;;;;;;0.75;0.75;;;;;22.49;58.48;101570.31;5076072;28;66658;-81
2022/08/01 05:22:48;;;;;;;;;0.25;0.25;;;;;22.51;58.25;101576.38;5076024;28;70890;-81
2022/08/01 05:25:13;;;;;;;;;2.75;1.00;;;;;22.52;58.15;101572.75;5075645;28;65970;-81
2022/08/01 05:27:41;;;;;;;;;0.50;0.50;;;;;22.57;57.89;101575.94;5076226;28;69412;-81
2022/08/01 05:30:08;;;;;;;;;2.00;0.50;;;;;22.63;57.95;101566.72;5059316;28;45401;-81
2022/08/01 05:32:34;;;;;;;;;1.00;1.00;;;;;22.68;58.05;101566.41;5039741;28;45332;-81
2022/08/01 05:34:59;;;;;;;;;0.25;0.25;;;;;22.67;58.04;101570.03;5055400;28;74492;-81
2022/08/01 05:37:25;;;;;;;;;2.25;0.75;;;;;22.64;57.69;101572.88;5056435;28;45381;-82
2022/08/01 05:39:50;;;;;;;;;0.75;0.75;;;;;22.56;58.08;101573.38;5056303;28;45258;-83
2022/08/01 05:42:15;;;;;;;;;2.00;0.50;;;;;22.54;58.02;101577.94;5055609;28;70729;-81
2022/08/01 05:44:41;;;;;;;;;1.00;1.00;;;;;22.48;58.25;101579.22;5055699;28;63842;-83
2022/08/01 05:47:06;;;;;;;;;1.50;1.00;;;;;22.46;58.38;101589.06;5037595;28;65035;-83
2022/08/01 05:49:31;;;;;;;;;0.00;0.00;;;;;22.42;58.33;101588.41;5055695;28;58884;-83
2022/08/01 05:51:57;;;;;;;;;2.00;0.75;;;;;22.45;58.31;101584.69;5055343;28;70196;-83
2022/08/01 05:54:22;;;;;;;;;0.00;0.00;;;;;22.41;58.41;101581.41;5054993;28;72387;-84
2022/08/01 05:56:47;;;;;;;;;0.00;0.00;;;;;22.43;58.06;101576.00;5038514;28;45456;-81
2022/08/01 05:59:12;;;;;;;;;1.00;0.00;;;;;22.46;58.21;101586.41;5055653;28;61863;-80
2022/08/01 06:01:38;;;;;;;;;0.50;0.50;;;;;22.47;58.45;101584.59;5055795;28;58089;-80
2022/08/01 06:04:03;;;;;;;;;0.00;0.00;;;;;22.50;58.42;101582.59;5062238;28;46595;-80
2022/08/01 06:06:29;;;;;;;;;1.25;1.00;;;;;22.54;58.00;101588.56;5076335;28;45502;-81
2022/08/01 06:08:54;;;;;;;;;1.75;1.50;;;;;22.58;57.86;101590.06;5076058;28;45273;-81
2022/08/01 06:11:19;;;;;;;;;1.00;1.00;;;;;22.54;57.79;101584.09;5058065;28;47106;-81
2022/08/01 06:13:45;;;;;;;;;1.00;1.00;;;;;22.56;57.63;101584.00;5075745;28;56597;-81
2022/08/01 06:16:10;;;;;;;;;1.00;1.00;;;;;22.61;57.90;101584.56;5057438;28;66722;-80
2022/08/01 06:18:35;;;;;;;;;0.50;0.50;;;;;22.61;57.31;101582.75;5075443;28;65110;-81
2022/08/01 06:21:01;;;;;;;;;1.75;1.25;;;;;22.58;57.66;101595.34;5076375;28;45451;-81
2022/08/01 06:23:26;;;;;;;;;1.25;1.00;;;;;22.49;57.68;101599.50;5074864;28;75419;-79
2022/08/01 06:25:52;;;;;;;;;2.00;2.00;;;;;22.44;57.67;101593.63;5075066;28;65616;-79
2022/08/01 06:28:18;;;;;;;;;2.00;1.00;;;;;22.44;58.00;101593.63;5076025;28;45309;-80
2022/08/01 06:30:43;;;;;;;;;1.50;1.00;;;;;22.41;57.63;101596.47;5071722;28;65634;-80
2022/08/01 06:33:08;;;;;;;;;1.00;1.00;;;;;22.36;57.79;101583.53;5045617;28;73287;-80
2022/08/01 06:35:34;;;;;;;;;1.25;1.25;;;;;22.39;57.79;101585.13;5051143;28;45407;-80
2022/08/01 06:37:59;;;;;;;;;1.00;1.00;;;;;22.47;57.96;101596.06;5054753;28;45269;-79
2022/08/01 06:40:24;;;;;;;;;0.50;0.50;;;;;22.49;57.71;101598.63;5054839;28;58804;-80
2022/08/01 06:42:50;;;;;;;;;1.50;1.00;;;;;22.49;57.84;101591.53;5037150;28;59283;-80
2022/08/01 06:45:16;;;;;;;;;0.50;0.50;;;;;22.55;57.66;101592.94;5036725;28;73119;-77
2022/08/01 06:47:44;;;;;;;;;2.25;1.50;;;;;22.59;57.59;101586.47;5055663;28;45307;-80
2022/08/01 06:50:10;;;;;;;;;0.75;0.75;;;;;22.64;57.50;101591.44;5037728;28;45570;-79
2022/08/01 06:52:35;;;;;;;;;3.00;1.00;;;;;22.70;57.73;101589.25;5055015;28;45391;-80
2022/08/01 06:55:02;;;;;;;;;1.00;1.00;;;;;22.78;57.26;101602.00;5054633;28;56841;-83
2022/08/01 06:57:27;;;;;;;;;4.50;1.50;;;;;22.82;57.19;101598.19;5055675;28;45363;-82
2022/08/01 06:59:53;;;;;;;;;2.25;2.00;;;;;22.90;57.45;101597.66;5055266;28;45467;-86
2022/08/01 07:02:19;;;;;;;;;3.75;3.25;;;;;22.99;56.80;101589.06;5037301;28;46114;-78
2022/08/01 07:04:44;;;;;;;;;3.75;3.75;;;;;23.08;56.59;101590.28;5067210;28;45503;-84
2022/08/01 07:07:09;;;;;;;;;3.75;3.00;;;;;23.21;56.99;101592.97;5061234;28;68604;-79
2022/08/01 07:09:35;;;;;;;;;2.50;0.50;;;;;23.28;56.17;101589.78;5054933;28;56366;-81
2022/08/01 07:12:00;;;;;;;;;6.50;4.25;;;;;23.35;56.29;101590.22;5036219;28;67052;-82
2022/08/01 07:14:25;;;;;;;;;3.50;3.50;;;;;23.50;55.71;101585.63;5054192;28;73606;-83
2022/08/01 07:16:51;;;;;;;;;3.00;3.00;;;;;23.67;55.80;101595.06;5055459;28;45356;-84
2022/08/01 07:19:17;;;;;;;;;5.00;3.75;;;;;23.77;55.58;101590.78;5037320;28;45628;-84
2022/08/01 07:21:42;;;;;;;;;7.25;4.75;;;;;23.86;55.06;101592.81;5039905;28;46659;-83
2022/08/01 07:24:10;;;;;;;;;4.25;4.25;;;;;23.91;54.67;101601.31;5063662;28;45395;-82
2022/08/01 07:26:35;;;;;;;;;6.50;4.75;;;;;23.89;54.14;101603.25;5078192;27;45505;-84
2022/08/01 07:29:01;;;;;;;;;4.50;4.50;;;;;23.88;54.28;101606.00;5078829;27;45316;-81
2022/08/01 07:31:26;;;;;;;;;4.50;4.50;;;;;23.87;54.00;101602.50;5092012;27;46287;-85
2022/08/01 07:33:52;;;;;;;;;3.25;3.25;;;;;23.88;54.07;101601.53;5085515;27;45332;-81
2022/08/01 07:36:17;;;;;;;;;6.25;4.00;;;;;23.90;54.82;101599.63;5078514;27;45292;-86
2022/08/01 07:38:44;;;;;;;;;7.00;5.00;;;;;23.99;54.38;101605.25;5057280;28;45459;-85
2022/08/01 07:41:09;;;;;;;;;4.25;4.00;;;;;24.04;53.99;101611.09;5075503;27;46320;-83
2022/08/01 07:43:35;;;;;;;;;5.00;5.00;;;;;24.02;53.95;101613.84;5078514;28;45174;-82
2022/08/01 07:46:03;;;;;;;;;4.25;4.25;;;;;23.94;53.70;101616.19;5079533;27;45317;-83
2022/08/01 07:48:29;;;;;;;;;7.00;4.00;;;;;23.90;54.65;101617.38;5098577;27;45507;-85
2022/08/01 07:50:55;;;;;;;;;5.00;3.00;;;;;23.95;53.92;101612.59;5092203;27;47004;-85
2022/08/01 07:53:20;;;;;;;;;4.25;3.50;;;;;23.94;54.12;101619.72;5077243;28;45451;-85
2022/08/01 07:55:45;;;;;;;;;5.50;4.00;;;;;23.96;53.77;101623.13;5078011;27;45418;-83
2022/08/01 07:58:11;;;;;;;;;4.25;3.00;;;;;23.94;54.06;101621.50;5097121;27;45381;-83
2022/08/01 08:00:36;;;;;;;;;4.25;4.25;;;;;23.95;53.70;101616.09;5092228;27;74438;-86
2022/08/01 08:03:02;;;;;;;;;4.00;4.00;;;;;23.99;53.91;101618.53;5086745;27;72892;-84
2022/08/01 08:05:27;;;;;;;;;5.00;5.00;;;;;24.02;53.23;101631.63;5078106;27;45550;-81
2022/08/01 08:07:53;;;;;;;;;6.75;4.75;;;;;24.00;53.81;101621.09;5078035;28;45357;-82
2022/08/01 08:10:18;;;;;;;;;5.00;3.00;;;;;24.08;54.19;101631.16;5076594;28;48253;-79
2022/08/01 08:12:45;;;;;;;;;4.00;4.00;;;;;24.17;53.90;101629.66;5077792;28;45333;-82
2022/08/01 08:15:11;;;;;;;;;6.50;4.75;;;;;24.21;53.29;101621.34;5077955;27;45421;-83
2022/08/01 08:17:36;;;;;;;;;3.75;3.50;;;;;24.28;53.48;101625.25;5076598;28;45355;-82
2022/08/01 08:20:04;;;;;;;;;3.00;3.00;;;;;24.36;52.83;101627.34;5076801;28;70104;-81
2022/08/01 08:22:29;;;;;;;;;4.50;4.00;;;;;24.46;52.93;101631.03;5077836;28;45801;-81
2022/08/01 08:24:54;;;;;;;;;6.00;4.00;;;;;24.66;52.89;101631.41;5075561;28;67770;-80
2022/08/01 08:27:20;;;;;;;;;7.00;5.00;;;;;24.81;52.73;101624.91;5077504;28;47213;-81
2022/08/01 08:29:45;;;;;;;;;6.75;4.25;;;;;24.89;51.92;101635.00;5077782;27;65888;-81
2022/08/01 08:32:10;;;;;;;;;4.25;3.50;;;;;24.90;51.81;101637.53;5077834;27;51785;-82
2022/08/01 08:34:36;;;;;;;;;4.00;4.00;;;;;24.96;52.08;101630.91;5077894;28;45588;-81
2022/08/01 08:37:01;;;;;;;;;5.50;4.25;;;;;25.11;51.55;101618.22;5079102;27;68579;-80
2022/08/01 08:39:29;;;;;;;;;5.25;3.00;;;;;25.24;51.74;101612.84;5077612;28;46355;-81
2022/08/01 08:41:54;;;;;;;;;7.25;6.00;;;;;25.35;51.05;101612.00;5076225;27;45336;-82
2022/08/01 08:44:20;;;;;;;;;5.00;4.50;;;;;25.36;50.61;101619.03;5077584;27;45319;-82
2022/08/01 08:46:55;;;;;;;;;4.00;4.00;;;;;25.43;50.07;101613.13;5087138;27;64029;-82
2022/08/01 08:49:28;;;;;;;;;5.00;3.00;;;;;25.52;50.64;101614.22;5076325;28;47203;-80
2022/08/01 08:51:58;;;;;;;;;5.25;4.75;;;;;25.72;50.26;101612.63;5077044;28;45329;-82
2022/08/01 08:54:24;;;;;;;;;4.00;4.00;;;;;25.76;49.42;101614.09;5077540;28;45442;-81
2022/08/01 08:56:51;;;;;;;;;4.50;3.25;;;;;25.74;49.79;101607.16;5076089;28;45408;-81
2022/08/01 08:59:17;;;;;;;;;4.25;3.25;;;;;25.72;48.84;101604.63;5075657;28;45403;-78
2022/08/01 09:01:42;;;;;;;;;3.00;2.00;;;;;25.65;49.17;101598.94;5075978;27;71538;-78
2022/08/01 09:04:08;;;;;;;;;7.50;3.00;;;;;25.67;48.77;101606.81;5081751;27;45350;-77
2022/08/01 09:06:33;;;;;;;;;2.75;2.75;;;;;25.74;49.57;101609.84;5077313;28;45419;-78
2022/08/01 09:08:59;;;;;;;;;3.50;2.75;;;;;25.78;48.74;101613.94;5077048;28;46293;-77
2022/08/01 09:11:25;;;;;;;;;2.50;2.50;;;;;25.82;48.49;101620.75;5077087;28;45721;-77
2022/08/01 09:14:22;;;;;;;;;3.25;2.50;;;;;25.89;48.76;101617.47;5092600;27;45362;-77
2022/08/01 09:16:59;;;;;;;;;2.75;2.75;;;;;26.03;47.83;101620.88;5083682;27;45510;-77
2022/08/01 09:19:25;;;;;;;;;2.25;2.25;;;;;26.06;48.11;101625.97;5095564;27;46335;-77
2022/08/01 09:21:59;;;;;;;;;2.00;2.00;;;;;26.06;48.43;101618.81;5096161;27;45686;-77
2022/08/01 09:24:26;;;;;;;;;3.00;3.00;;;;;26.16;46.84;101626.91;5086241;27;45446;-76
2022/08/01 09:26:52;;;;;;;;;5.25;3.00;;;;;26.05;46.80;101622.44;5097376;27;45425;-77
2022/08/01 09:29:21;;;;;;;;;3.00;2.00;;;;;25.99;46.72;101633.59;5097142;27;46209;-78
2022/08/01 09:31:49;;;;;;;;;2.00;2.00;;;;;25.71;46.78;101626.09;5084012;27;45915;-78
2022/08/01 09:34:15;;;;;;;;;3.00;3.00;;;;;25.58;47.46;101619.06;5077131;28;45581;-77
2022/08/01 09:36:54;;;;;;;;;2.75;2.00;;;;;25.42;47.33;101630.06;5076890;28;45454;-78
2022/08/01 09:39:21;;;;;;;;;3.00;2.50;;;;;25.32;48.74;101618.44;5076461;28;45451;-78
2022/08/01 09:41:47;;;;;;;;;4.00;3.00;;;;;25.26;48.50;101608.25;5076828;28;45275;-77
2022/08/01 09:44:13;;;;;;;;;2.00;2.00;;;;;25.25;48.46;101604.72;5076059;28;45357;-78
2022/08/01 09:46:53;;;;;;;;;6.00;4.00;;;;;25.32;48.65;101621.09;5076536;28;45423;-78
2022/08/01 09:49:34;;;;;;;;;4.75;3.25;;;;;25.21;48.93;101618.38;5075089;28;45629;-78
2022/08/01 09:52:15;;;;;;;;;5.00;3.00;;;;;25.18;48.88;101623.94;5076568;28;45282;-78
2022/08/01 09:54:42;;;;;;;;;3.00;3.00;;;;;25.10;49.07;101614.72;5109716;27;45304;-77
2022/08/01 09:57:19;;;;;;;;;1.00;1.00;;;;;25.14;49.38;101620.66;5109453;27;45475;-77
2022/08/01 09:59:46;;;;;;;;;3.50;2.00;;;;;25.38;49.26;101627.75;5076078;28;45419;-77
2022/08/01 10:02:15;;;;;;;;;3.00;2.75;;;;;25.72;48.52;101627.78;5076258;28;45706;-78
2022/08/01 10:04:51;;;;;;;;;2.50;2.50;;;;;25.97;48.37;101622.22;5076202;27;45239;-77
2022/08/01 10:07:17;;;;;;;;;3.25;3.25;;;;;26.13;47.39;101620.97;5076835;28;45382;-77
2022/08/01 10:09:44;;;;;;;;;4.00;4.00;;;;;26.18;47.66;101618.78;5075181;28;46365;-77
2022/08/01 10:12:11;;;;;;;;;4.00;4.00;;;;;26.22;47.21;101617.56;5076421;27;45261;-77
2022/08/01 10:14:38;;;;;;;;;3.00;3.00;;;;;26.34;47.20;101618.41;5075936;28;45406;-77
2022/08/01 10:17:03;;;;;;;;;3.50;3.00;;;;;26.52;47.01;101608.00;5076454;28;45404;-77
2022/08/01 10:19:30;;;;;;;;;6.00;4.00;;;;;26.73;47.10;101618.75;5076121;28;45685;-77
2022/08/01 10:21:57;;;;;;;;;3.75;3.75;;;;;26.97;45.57;101639.88;5076437;27;45711;-77
2022/08/01 10:24:23;;;;;;;;;4.50;3.50;;;;;27.20;45.73;101620.06;5076122;27;45260;-77
2022/08/01 10:26:52;;;;;;;;;6.00;4.00;;;;;27.72;44.82;101633.44;5076192;28;45429;-77
2022/08/01 10:29:18;;;;;;;;;5.00;4.00;;;;;28.04;43.49;101639.63;5057578;28;46197;-78
2022/08/01 10:31:44;;;;;;;;;2.50;2.50;;;;;28.06;43.71;101638.50;5063747;28;45399;-77
2022/08/01 10:34:11;;;;;;;;;3.00;3.00;;;;;27.99;43.59;101615.97;5055852;28;45509;-77
2022/08/01 10:36:38;;;;;;;;;4.00;3.00;;;;;27.96;43.53;101622.41;5037867;28;45423;-76
2022/08/01 10:39:06;;;;;;;;;5.00;3.00;;;;;27.75;44.26;101619.78;5037622;28;45386;-77
2022/08/01 10:41:33;;;;;;;;;4.25;4.25;;;;;27.60;43.82;101623.81;5037638;28;45358;-77
2022/08/01 10:44:00;;;;;;;;;5.50;4.25;;;;;27.44;43.97;101626.13;5055452;28;45380;-77
2022/08/01 10:46:26;;;;;;;;;4.00;4.00;;;;;27.37;44.05;101617.78;5055733;28;45299;-77
2022/08/01 10:48:59;;;;;;;;;4.00;3.00;;;;;27.44;44.11;101626.13;5037147;28;58370;-77
2022/08/01 10:51:25;;;;;;;;;3.25;3.25;;;;;27.77;44.26;101625.00;5037426;28;45962;-77
2022/08/01 10:53:53;;;;;;;;;2.75;1.75;;;;;28.11;44.41;101608.66;5036761;28;65916;-77
2022/08/01 10:56:18;;;;;;;;;6.00;3.00;;;;;28.42;42.59;101613.88;5037992;28;45491;-77
2022/08/01 10:58:46;;;;;;;;;4.00;3.25;;;;;28.44;42.53;101622.66;5058580;28;46257;-77
2022/08/01 11:01:14;;;;;;;;;6.00;3.75;;;;;28.64;43.03;101621.72;5040920;28;45863;-77
2022/08/01 11:03:41;;;;;;;;;3.75;3.00;;;;;28.84;42.38;101622.50;5061814;28;45262;-78
2022/08/01 11:06:06;;;;;;;;;5.00;3.25;;;;;28.81;41.65;101622.81;5079468;28;45371;-77
2022/08/01 11:08:36;;;;;;;;;6.00;2.00;;;;;28.85;41.22;101620.69;5078600;28;53660;-78
2022/08/01 11:11:01;;;;;;;;;3.25;2.75;;;;;28.95;40.83;101618.84;5060091;28;64502;-78
2022/08/01 11:13:58;;;;;;;;;4.50;2.50;;;;;29.12;41.56;101628.84;5078838;28;45530;-77
2022/08/01 11:16:34;;;;;;;;;5.50;4.00;;;;;29.28;41.45;101630.94;5079041;28;45282;-77
2022/08/01 11:19:00;;;;;;;;;5.25;4.25;;;;;29.32;40.84;101626.13;5078686;28;47040;-77
2022/08/01 11:21:54;;;;;;;;;5.00;3.00;;;;;29.36;40.95;101622.16;5078582;28;51989;-77
2022/08/01 11:24:47;;;;;;;;;6.00;4.00;;;;;29.31;41.21;101621.78;5078706;28;45349;-77
2022/08/01 11:27:24;;;;;;;;;5.75;4.75;;;;;29.18;40.72;101615.84;5060238;28;45426;-77
2022/08/01 11:30:08;;;;;;;;;2.50;2.50;;;;;29.28;40.75;101614.84;5078586;28;46242;-77